AAL407 TFFF-CYUL
Flight info
| Callsign | AAL407 |
|---|---|
| Flight time | N/A |
| Altitude | 40000 |
| Route | EMOLA2R EMOLA A555 DUNTA/N0497F380 UA555 ILURI L454 LEEOO DCT HANCY/M085F380 L456 VINSO/M085F400 L456 MARIG/N0494F400 Y483 DOGRS Y487 SHIPP DCT JFK/N0497F410 DCT LLUND DCT CAM DCT JASDU DCT PBERG CARTR5 |
| Aircraft | B789/H-SDE1E2E3FGHIJ2J3J4J5M1RWXY/LB1D1 |
Departure
| Time | 2026-05-04 05:12 |
|---|---|
| Airport | Martinique Aimé Césaire International Airport (TFFF) |
Arrival
| Time | N/A |
|---|---|
| Airport | Montreal / Pierre Elliott Trudeau International Airport (CYUL) |
| Time | Latitude | Longitude | Altitude | Speed | Heading |
|---|---|---|---|---|---|
| 2026-05-04 05:01 | 14.59543 | -61.00141 | 29 ft | 0 kts | 48° |
| 2026-05-04 05:02 | 14.59543 | -61.00140 | 29 ft | 0 kts | 48° |
| 2026-05-04 05:04 | 14.59544 | -61.00140 | 29 ft | 0 kts | 48° |
| 2026-05-04 05:06 | 14.59544 | -61.00139 | 29 ft | 0 kts | 48° |
| 2026-05-04 05:07 | 14.59558 | -61.00132 | 29 ft | 5 kts | 12° |
| 2026-05-04 05:07 | 14.59593 | -61.00159 | 29 ft | 9 kts | 305° |
| 2026-05-04 05:07 | 14.59610 | -61.00223 | 29 ft | 10 kts | 260° |
| 2026-05-04 05:09 | 14.59090 | -61.00386 | 29 ft | 22 kts | 260° |
| 2026-05-04 05:09 | 14.59062 | -61.00548 | 29 ft | 24 kts | 260° |
| 2026-05-04 05:10 | 14.59032 | -61.00722 | 29 ft | 25 kts | 260° |
| 2026-05-04 05:10 | 14.59000 | -61.00904 | 29 ft | 26 kts | 260° |
| 2026-05-04 05:10 | 14.58967 | -61.01093 | 29 ft | 27 kts | 260° |
| 2026-05-04 05:10 | 14.58934 | -61.01283 | 29 ft | 27 kts | 260° |
| 2026-05-04 05:11 | 14.58900 | -61.01479 | 29 ft | 28 kts | 260° |
| 2026-05-04 05:11 | 14.58874 | -61.01673 | 29 ft | 19 kts | 263° |
| 2026-05-04 05:11 | 14.58885 | -61.01784 | 29 ft | 10 kts | 241° |
| 2026-05-04 05:11 | 14.58854 | -61.01793 | 29 ft | 4 kts | 158° |
| 2026-05-04 05:12 | 14.58841 | -61.01754 | 29 ft | 8 kts | 79° |
| 2026-05-04 05:12 | 14.58899 | -61.01510 | 29 ft | 87 kts | 79° |
| 2026-05-04 05:12 | 14.59065 | -61.00539 | 45 ft | 180 kts | 78° |
| 2026-05-04 05:12 | 14.59341 | -60.99137 | 621 ft | 212 kts | 78° |
| 2026-05-04 05:13 | 14.59618 | -60.97654 | 1923 ft | 208 kts | 79° |
| 2026-05-04 05:13 | 14.59891 | -60.96166 | 2795 ft | 216 kts | 79° |
| 2026-05-04 05:13 | 14.60182 | -60.94573 | 3402 ft | 236 kts | 79° |
| 2026-05-04 05:13 | 14.60469 | -60.92846 | 4157 ft | 251 kts | 80° |
| 2026-05-04 05:14 | 14.60719 | -60.91022 | 4958 ft | 263 kts | 80° |
| 2026-05-04 05:14 | 14.61298 | -60.89195 | 5587 ft | 276 kts | 61° |
| 2026-05-04 05:14 | 14.62604 | -60.87771 | 6313 ft | 279 kts | 34° |
| 2026-05-04 05:14 | 14.64397 | -60.87055 | 7109 ft | 277 kts | 7° |
| 2026-05-04 05:15 | 14.66275 | -60.87224 | 8011 ft | 268 kts | 341° |
| 2026-05-04 05:15 | 14.67960 | -60.87973 | 9037 ft | 262 kts | 332° |
| 2026-05-04 05:15 | 14.69634 | -60.88778 | 9836 ft | 268 kts | 331° |
| 2026-05-04 05:15 | 14.71351 | -60.89605 | 10491 ft | 278 kts | 330° |
| 2026-05-04 05:16 | 14.73148 | -60.90508 | 10967 ft | 296 kts | 332° |
| 2026-05-04 05:16 | 14.75134 | -60.91293 | 11408 ft | 315 kts | 337° |
| 2026-05-04 05:16 | 14.77298 | -60.91952 | 11830 ft | 333 kts | 341° |
| 2026-05-04 05:16 | 14.79613 | -60.92526 | 12216 ft | 350 kts | 343° |
| 2026-05-04 05:17 | 14.82040 | -60.93049 | 12684 ft | 363 kts | 345° |
| 2026-05-04 05:17 | 14.84556 | -60.93549 | 13272 ft | 371 kts | 346° |
| 2026-05-04 05:17 | 14.87077 | -60.94030 | 13920 ft | 377 kts | 346° |
| 2026-05-04 05:17 | 14.89632 | -60.94702 | 14550 ft | 380 kts | 338° |
| 2026-05-04 05:18 | 14.91881 | -60.96112 | 15171 ft | 378 kts | 318° |
| 2026-05-04 05:18 | 14.93503 | -60.98223 | 15925 ft | 374 kts | 299° |
| 2026-05-04 05:18 | 14.94618 | -61.00644 | 16749 ft | 372 kts | 292° |
| 2026-05-04 05:18 | 14.95616 | -61.03130 | 17334 ft | 378 kts | 290° |
| 2026-05-04 05:19 | 14.96565 | -61.05683 | 17913 ft | 382 kts | 289° |
| 2026-05-04 05:19 | 14.97451 | -61.08302 | 18500 ft | 387 kts | 288° |
| 2026-05-04 05:19 | 14.98286 | -61.10961 | 19098 ft | 391 kts | 287° |
| 2026-05-04 05:19 | 14.99080 | -61.13616 | 19700 ft | 394 kts | 286° |
| 2026-05-04 05:20 | 14.99874 | -61.16343 | 20306 ft | 396 kts | 285° |
| 2026-05-04 05:20 | 15.00660 | -61.19082 | 20885 ft | 400 kts | 285° |
| 2026-05-04 05:20 | 15.01451 | -61.21858 | 21436 ft | 403 kts | 285° |
| 2026-05-04 05:20 | 15.02246 | -61.24657 | 21967 ft | 407 kts | 285° |
| 2026-05-04 05:21 | 15.03040 | -61.27462 | 22488 ft | 411 kts | 285° |
| 2026-05-04 05:21 | 15.03857 | -61.30348 | 23024 ft | 415 kts | 285° |
| 2026-05-04 05:21 | 15.04658 | -61.33181 | 23550 ft | 418 kts | 285° |
| 2026-05-04 05:21 | 15.05477 | -61.36077 | 24078 ft | 421 kts | 285° |
| 2026-05-04 05:22 | 15.06303 | -61.39001 | 24594 ft | 424 kts | 285° |
| 2026-05-04 05:22 | 15.07134 | -61.41945 | 25088 ft | 428 kts | 285° |
| 2026-05-04 05:22 | 15.07974 | -61.44918 | 25567 ft | 431 kts | 285° |
| 2026-05-04 05:22 | 15.08818 | -61.47911 | 26035 ft | 435 kts | 285° |
| 2026-05-04 05:23 | 15.09667 | -61.50923 | 26501 ft | 438 kts | 285° |
| 2026-05-04 05:23 | 15.10522 | -61.53957 | 26967 ft | 441 kts | 285° |
| 2026-05-04 05:23 | 15.11370 | -61.56969 | 27421 ft | 444 kts | 285° |
| 2026-05-04 05:23 | 15.12239 | -61.60058 | 27871 ft | 447 kts | 285° |
| 2026-05-04 05:24 | 15.13206 | -61.63141 | 28277 ft | 452 kts | 290° |
| 2026-05-04 05:24 | 15.14699 | -61.66023 | 28669 ft | 458 kts | 301° |
| 2026-05-04 05:24 | 15.16694 | -61.68598 | 29162 ft | 461 kts | 309° |
| 2026-05-04 05:24 | 15.18894 | -61.71032 | 29613 ft | 464 kts | 311° |
| 2026-05-04 05:25 | 15.21131 | -61.73453 | 29969 ft | 468 kts | 311° |
| 2026-05-04 05:25 | 15.23380 | -61.75923 | 30323 ft | 472 kts | 311° |
| 2026-05-04 05:25 | 15.24857 | -61.77573 | 30577 ft | 474 kts | 310° |
| 2026-05-04 05:25 | 15.27090 | -61.80103 | 30996 ft | 477 kts | 310° |
| 2026-05-04 05:26 | 15.29322 | -61.82660 | 31435 ft | 479 kts | 310° |
| 2026-05-04 05:26 | 15.31554 | -61.85234 | 31861 ft | 481 kts | 310° |
| 2026-05-04 05:26 | 15.33792 | -61.87823 | 32324 ft | 482 kts | 310° |
| 2026-05-04 05:26 | 15.36032 | -61.90418 | 32827 ft | 482 kts | 310° |
| 2026-05-04 05:27 | 15.38268 | -61.93010 | 33339 ft | 481 kts | 310° |
| 2026-05-04 05:28 | 15.53745 | -62.10977 | 36663 ft | 474 kts | 310° |
| 2026-05-04 05:29 | 15.55942 | -62.13531 | 37043 ft | 474 kts | 310° |
| 2026-05-04 05:29 | 15.58136 | -62.16083 | 37408 ft | 473 kts | 310° |
| 2026-05-04 05:29 | 15.60332 | -62.18632 | 37759 ft | 473 kts | 310° |
| 2026-05-04 05:29 | 15.62525 | -62.21177 | 38096 ft | 473 kts | 310° |
| 2026-05-04 05:31 | 15.77820 | -62.38940 | 39974 ft | 472 kts | 310° |
| 2026-05-04 05:31 | 15.80012 | -62.41488 | 39982 ft | 471 kts | 310° |
| 2026-05-04 05:32 | 15.84360 | -62.46546 | 39993 ft | 469 kts | 310° |
| 2026-05-04 05:33 | 15.90888 | -62.54146 | 39999 ft | 470 kts | 310° |
| 2026-05-04 05:33 | 15.95214 | -62.59187 | 39990 ft | 469 kts | 310° |
| 2026-05-04 05:34 | 15.99553 | -62.64246 | 40003 ft | 470 kts | 310° |
| 2026-05-04 05:34 | 16.03907 | -62.69327 | 39994 ft | 470 kts | 310° |
| 2026-05-04 05:35 | 16.08253 | -62.74403 | 39995 ft | 469 kts | 310° |
| 2026-05-04 05:35 | 16.12596 | -62.79477 | 40003 ft | 470 kts | 310° |
| 2026-05-04 05:36 | 16.16939 | -62.84555 | 39990 ft | 470 kts | 310° |
| 2026-05-04 05:36 | 16.21283 | -62.89638 | 40000 ft | 470 kts | 309° |
| 2026-05-04 05:37 | 16.25593 | -62.94686 | 39999 ft | 470 kts | 309° |
| 2026-05-04 05:37 | 16.29973 | -62.99752 | 39991 ft | 470 kts | 310° |
| 2026-05-04 05:38 | 16.36623 | -63.07253 | 40003 ft | 470 kts | 311° |
| 2026-05-04 05:38 | 16.41069 | -63.12233 | 39990 ft | 470 kts | 311° |
| 2026-05-04 05:39 | 16.47732 | -63.19691 | 40004 ft | 470 kts | 311° |
| 2026-05-04 05:40 | 16.54415 | -63.27179 | 39992 ft | 470 kts | 311° |
| 2026-05-04 05:40 | 16.58870 | -63.32175 | 40004 ft | 470 kts | 311° |
| 2026-05-04 05:41 | 16.63325 | -63.37174 | 39993 ft | 470 kts | 311° |
| 2026-05-04 05:41 | 16.67780 | -63.42178 | 39997 ft | 470 kts | 311° |
| 2026-05-04 05:42 | 16.72205 | -63.47151 | 40002 ft | 470 kts | 311° |
| 2026-05-04 05:42 | 16.76652 | -63.52154 | 39990 ft | 470 kts | 311° |
| 2026-05-04 05:43 | 16.81095 | -63.57154 | 40001 ft | 470 kts | 311° |
| 2026-05-04 05:45 | 16.98881 | -63.77211 | 39993 ft | 470 kts | 310° |
| 2026-05-04 05:47 | 17.16612 | -63.97266 | 40002 ft | 470 kts | 310° |
| 2026-05-04 05:47 | 17.21048 | -64.02293 | 39997 ft | 470 kts | 310° |
| 2026-05-04 05:48 | 17.25484 | -64.07324 | 39992 ft | 470 kts | 310° |
| 2026-05-04 05:48 | 17.29893 | -64.12328 | 40004 ft | 470 kts | 310° |
| 2026-05-04 05:49 | 17.34331 | -64.17369 | 39993 ft | 470 kts | 310° |
| 2026-05-04 05:49 | 17.38763 | -64.22407 | 39997 ft | 470 kts | 310° |
| 2026-05-04 05:51 | 17.56613 | -64.42403 | 39952 ft | 473 kts | 319° |
| 2026-05-04 05:52 | 17.59405 | -64.44244 | 39968 ft | 476 kts | 330° |
| 2026-05-04 05:52 | 17.62449 | -64.45647 | 40024 ft | 479 kts | 335° |
| 2026-05-04 05:52 | 17.68726 | -64.48042 | 40002 ft | 480 kts | 338° |
| 2026-05-04 05:54 | 17.93860 | -64.57457 | 39994 ft | 480 kts | 337° |
| 2026-05-04 05:55 | 18.00140 | -64.59839 | 40004 ft | 480 kts | 337° |
| 2026-05-04 05:55 | 18.06378 | -64.62206 | 39991 ft | 480 kts | 337° |
| 2026-05-04 05:56 | 18.12661 | -64.64592 | 39999 ft | 480 kts | 337° |
| 2026-05-04 05:56 | 18.18949 | -64.66983 | 40000 ft | 480 kts | 337° |
| 2026-05-04 05:57 | 18.25236 | -64.69374 | 39990 ft | 480 kts | 337° |
| 2026-05-04 05:57 | 18.31484 | -64.71753 | 40003 ft | 480 kts | 337° |
| 2026-05-04 05:58 | 18.37766 | -64.74146 | 39995 ft | 480 kts | 337° |
| 2026-05-04 05:58 | 18.44051 | -64.76542 | 39994 ft | 480 kts | 337° |
| 2026-05-04 05:59 | 18.50322 | -64.78935 | 40004 ft | 480 kts | 337° |
| 2026-05-04 05:59 | 18.56614 | -64.81338 | 39991 ft | 480 kts | 337° |
| 2026-05-04 06:00 | 18.62846 | -64.83720 | 39999 ft | 480 kts | 337° |
| 2026-05-04 06:00 | 18.69128 | -64.86122 | 40000 ft | 480 kts | 337° |
| 2026-05-04 06:01 | 18.75404 | -64.88525 | 39990 ft | 480 kts | 337° |
| 2026-05-04 06:03 | 19.00483 | -64.98143 | 40004 ft | 480 kts | 337° |
| 2026-05-04 06:05 | 19.28723 | -65.09012 | 39996 ft | 480 kts | 337° |
| 2026-05-04 06:06 | 19.34964 | -65.11419 | 40003 ft | 480 kts | 337° |
| 2026-05-04 06:06 | 19.41240 | -65.13841 | 39990 ft | 480 kts | 337° |
| 2026-05-04 06:07 | 19.47511 | -65.16264 | 40001 ft | 480 kts | 337° |
| 2026-05-04 06:07 | 19.53757 | -65.18679 | 39998 ft | 480 kts | 337° |
| 2026-05-04 06:08 | 19.60075 | -65.21124 | 39991 ft | 480 kts | 337° |
| 2026-05-04 06:08 | 19.66342 | -65.23551 | 40004 ft | 480 kts | 337° |
| 2026-05-04 06:09 | 19.72582 | -65.25970 | 39993 ft | 480 kts | 337° |
| 2026-05-04 06:11 | 19.97675 | -65.35718 | 40001 ft | 480 kts | 337° |
| 2026-05-04 06:13 | 20.22728 | -65.45482 | 39993 ft | 480 kts | 337° |
| 2026-05-04 06:14 | 20.44668 | -65.54061 | 39993 ft | 480 kts | 337° |
| 2026-05-04 06:15 | 20.50902 | -65.56504 | 40004 ft | 480 kts | 337° |
| 2026-05-04 06:15 | 20.57172 | -65.58962 | 39992 ft | 480 kts | 337° |
| 2026-05-04 06:16 | 20.62391 | -65.61011 | 39995 ft | 480 kts | 337° |
| 2026-05-04 06:16 | 20.68653 | -65.63470 | 40003 ft | 480 kts | 337° |
| 2026-05-04 06:17 | 20.74926 | -65.65936 | 39990 ft | 480 kts | 337° |
| 2026-05-04 06:17 | 20.81157 | -65.68388 | 40000 ft | 480 kts | 337° |
| 2026-05-04 06:18 | 20.87434 | -65.70859 | 39999 ft | 480 kts | 337° |
| 2026-05-04 06:20 | 21.12457 | -65.80736 | 39995 ft | 479 kts | 337° |
| 2026-05-04 06:21 | 21.28084 | -65.86921 | 39992 ft | 479 kts | 337° |
| 2026-05-04 06:22 | 21.34360 | -65.89410 | 40004 ft | 480 kts | 337° |
| 2026-05-04 06:25 | 21.78136 | -66.06829 | 39992 ft | 479 kts | 337° |
| 2026-05-04 06:26 | 21.84368 | -66.09318 | 40004 ft | 480 kts | 337° |
| 2026-05-04 06:26 | 21.90633 | -66.11823 | 39993 ft | 480 kts | 337° |
| 2026-05-04 06:27 | 22.06452 | -66.17619 | 40005 ft | 483 kts | 345° |
| 2026-05-04 06:28 | 22.13011 | -66.19011 | 39992 ft | 484 kts | 347° |
| 2026-05-04 06:28 | 22.19633 | -66.20330 | 39997 ft | 484 kts | 347° |
| 2026-05-04 06:29 | 22.26260 | -66.21669 | 40002 ft | 484 kts | 346° |
| 2026-05-04 06:29 | 22.32886 | -66.23021 | 39990 ft | 483 kts | 346° |
| 2026-05-04 06:30 | 22.39496 | -66.24376 | 40001 ft | 484 kts | 346° |
| 2026-05-04 06:30 | 22.46072 | -66.25726 | 39998 ft | 484 kts | 346° |
| 2026-05-04 06:31 | 22.52695 | -66.27086 | 39991 ft | 483 kts | 346° |
| 2026-05-04 06:31 | 22.59306 | -66.28445 | 40004 ft | 484 kts | 346° |
| 2026-05-04 06:33 | 22.85727 | -66.33891 | 39990 ft | 484 kts | 346° |
| 2026-05-04 06:34 | 22.92360 | -66.35260 | 40001 ft | 484 kts | 346° |
| 2026-05-04 06:34 | 22.98977 | -66.36629 | 39998 ft | 484 kts | 346° |
| 2026-05-04 06:36 | 23.25387 | -66.42106 | 39996 ft | 483 kts | 346° |
| 2026-05-04 06:37 | 23.32001 | -66.43481 | 40003 ft | 484 kts | 346° |
| 2026-05-04 06:37 | 23.38618 | -66.44857 | 39990 ft | 484 kts | 346° |
| 2026-05-04 06:38 | 23.45181 | -66.46225 | 40001 ft | 483 kts | 346° |
| 2026-05-04 06:40 | 23.71638 | -66.51751 | 39994 ft | 484 kts | 346° |
| 2026-05-04 06:40 | 23.78253 | -66.53135 | 39995 ft | 483 kts | 346° |
| 2026-05-04 06:41 | 23.84826 | -66.54512 | 40003 ft | 484 kts | 346° |
| 2026-05-04 06:41 | 23.91441 | -66.55900 | 39990 ft | 484 kts | 346° |
| 2026-05-04 06:42 | 23.98046 | -66.57287 | 40000 ft | 483 kts | 346° |
| 2026-05-04 06:44 | 24.24457 | -66.62848 | 39994 ft | 484 kts | 346° |
| 2026-05-04 06:44 | 24.31063 | -66.64243 | 39995 ft | 483 kts | 346° |
| 2026-05-04 06:45 | 24.37684 | -66.65642 | 40003 ft | 484 kts | 346° |
| 2026-05-04 06:45 | 24.44296 | -66.67041 | 39991 ft | 484 kts | 346° |
| 2026-05-04 06:46 | 24.50901 | -66.68440 | 40000 ft | 483 kts | 346° |
| 2026-05-04 06:46 | 24.57468 | -66.69833 | 40000 ft | 484 kts | 346° |
| 2026-05-04 06:48 | 24.83869 | -66.75445 | 39994 ft | 483 kts | 346° |
| 2026-05-04 06:50 | 25.10328 | -66.81095 | 40000 ft | 484 kts | 346° |
| 2026-05-04 06:51 | 25.16895 | -66.82501 | 39990 ft | 483 kts | 346° |
| 2026-05-04 06:51 | 25.23508 | -66.83919 | 40003 ft | 484 kts | 346° |
| 2026-05-04 06:52 | 25.30118 | -66.85337 | 39995 ft | 484 kts | 346° |
| 2026-05-04 06:52 | 25.36732 | -66.86758 | 39994 ft | 483 kts | 346° |
| 2026-05-04 06:53 | 25.43298 | -66.88170 | 40004 ft | 484 kts | 346° |
| 2026-05-04 06:53 | 25.49902 | -66.89592 | 39991 ft | 483 kts | 346° |
| 2026-05-04 06:54 | 25.56517 | -66.91018 | 39999 ft | 483 kts | 346° |
| 2026-05-04 06:54 | 25.63133 | -66.92445 | 40001 ft | 484 kts | 346° |
| 2026-05-04 06:55 | 25.69731 | -66.93871 | 39990 ft | 483 kts | 346° |
| 2026-05-04 06:55 | 25.76301 | -66.95292 | 40003 ft | 483 kts | 346° |
| 2026-05-04 06:57 | 26.02727 | -67.01023 | 39992 ft | 484 kts | 346° |
| 2026-05-04 06:58 | 26.09314 | -67.02456 | 39998 ft | 483 kts | 346° |
| 2026-05-04 06:58 | 26.15923 | -67.03895 | 40001 ft | 484 kts | 346° |
| 2026-05-04 06:59 | 26.22529 | -67.05335 | 39990 ft | 483 kts | 346° |
| 2026-05-04 06:59 | 26.29088 | -67.06767 | 40002 ft | 484 kts | 346° |
| 2026-05-04 07:01 | 26.55481 | -67.12544 | 39992 ft | 484 kts | 346° |
| 2026-05-04 07:02 | 26.62107 | -67.13999 | 39997 ft | 483 kts | 346° |
| 2026-05-04 07:02 | 26.68704 | -67.15449 | 40002 ft | 484 kts | 346° |
| 2026-05-04 07:03 | 26.75261 | -67.16892 | 39990 ft | 483 kts | 346° |
| 2026-05-04 07:03 | 26.81866 | -67.18347 | 40002 ft | 483 kts | 346° |
| 2026-05-04 07:04 | 26.88481 | -67.19806 | 39997 ft | 484 kts | 346° |
| 2026-05-04 07:04 | 26.95085 | -67.21264 | 39992 ft | 483 kts | 346° |
| 2026-05-04 07:05 | 27.01647 | -67.22715 | 40004 ft | 484 kts | 346° |
| 2026-05-04 07:05 | 27.08254 | -67.24177 | 39993 ft | 484 kts | 346° |
| 2026-05-04 07:06 | 27.18173 | -67.26377 | 40003 ft | 483 kts | 346° |
| 2026-05-04 07:07 | 27.24737 | -67.27835 | 39995 ft | 484 kts | 346° |
| 2026-05-04 07:09 | 27.51106 | -67.33708 | 39999 ft | 483 kts | 346° |
| 2026-05-04 07:09 | 27.57707 | -67.35183 | 40000 ft | 484 kts | 346° |
| 2026-05-04 07:10 | 27.64313 | -67.36661 | 39990 ft | 483 kts | 346° |
| 2026-05-04 07:12 | 27.90683 | -67.42578 | 40004 ft | 484 kts | 346° |
| 2026-05-04 07:12 | 27.96180 | -67.43815 | 39993 ft | 483 kts | 346° |
| 2026-05-04 07:13 | 28.02774 | -67.45301 | 39996 ft | 483 kts | 346° |
| 2026-05-04 07:13 | 28.09373 | -67.46790 | 40003 ft | 484 kts | 346° |
| 2026-05-04 07:14 | 28.25887 | -67.50523 | 40004 ft | 483 kts | 346° |
| 2026-05-04 07:15 | 28.32446 | -67.52009 | 39992 ft | 483 kts | 346° |
| 2026-05-04 07:15 | 28.39045 | -67.53505 | 39998 ft | 483 kts | 346° |
| 2026-05-04 07:16 | 28.45649 | -67.55006 | 40002 ft | 484 kts | 346° |
| 2026-05-04 07:16 | 28.52246 | -67.56508 | 39990 ft | 483 kts | 346° |
| 2026-05-04 07:17 | 28.58849 | -67.58012 | 40002 ft | 483 kts | 346° |
| 2026-05-04 07:17 | 28.65413 | -67.59509 | 39997 ft | 484 kts | 346° |
| 2026-05-04 07:18 | 28.72003 | -67.61013 | 39992 ft | 483 kts | 346° |
| 2026-05-04 07:18 | 28.78609 | -67.62524 | 40004 ft | 483 kts | 346° |
| 2026-05-04 07:19 | 28.85202 | -67.64033 | 39992 ft | 483 kts | 346° |
| 2026-05-04 07:19 | 28.91764 | -67.65538 | 39997 ft | 483 kts | 346° |
| 2026-05-04 07:20 | 28.98369 | -67.67054 | 40002 ft | 483 kts | 346° |
| 2026-05-04 07:20 | 29.04963 | -67.68569 | 39990 ft | 483 kts | 346° |
| 2026-05-04 07:22 | 29.31325 | -67.74648 | 40004 ft | 483 kts | 346° |
| 2026-05-04 07:23 | 29.37909 | -67.76171 | 39993 ft | 483 kts | 346° |
| 2026-05-04 07:23 | 29.44505 | -67.77699 | 39997 ft | 483 kts | 346° |
| 2026-05-04 07:24 | 29.51062 | -67.79220 | 40003 ft | 483 kts | 346° |
| 2026-05-04 07:24 | 29.57653 | -67.80751 | 39990 ft | 483 kts | 346° |
| 2026-05-04 07:26 | 29.84037 | -67.86900 | 40004 ft | 483 kts | 346° |
| 2026-05-04 07:27 | 29.90634 | -67.88442 | 39994 ft | 483 kts | 346° |
| 2026-05-04 07:27 | 29.97184 | -67.89976 | 39995 ft | 483 kts | 346° |
| 2026-05-04 07:28 | 30.03778 | -67.91522 | 40003 ft | 483 kts | 346° |
| 2026-05-04 07:28 | 30.10379 | -67.93072 | 39991 ft | 483 kts | 346° |
| 2026-05-04 07:29 | 30.16979 | -67.94623 | 40000 ft | 483 kts | 346° |
| 2026-05-04 07:29 | 30.23530 | -67.96166 | 39999 ft | 483 kts | 346° |
| 2026-05-04 07:30 | 30.30135 | -67.97722 | 39991 ft | 483 kts | 346° |
| 2026-05-04 07:30 | 30.36718 | -67.99277 | 40003 ft | 483 kts | 346° |
| 2026-05-04 07:31 | 30.43282 | -68.00828 | 39994 ft | 483 kts | 346° |
| 2026-05-04 07:33 | 30.69624 | -68.07077 | 39999 ft | 483 kts | 346° |
| 2026-05-04 07:33 | 30.76218 | -68.08646 | 40000 ft | 483 kts | 346° |
| 2026-05-04 07:34 | 30.82822 | -68.10221 | 39990 ft | 483 kts | 346° |
| 2026-05-04 07:34 | 30.89416 | -68.11794 | 40003 ft | 483 kts | 346° |
| 2026-05-04 07:35 | 30.95964 | -68.13360 | 39995 ft | 483 kts | 346° |
| 2026-05-04 07:35 | 31.02549 | -68.14936 | 39994 ft | 483 kts | 346° |
| 2026-05-04 07:36 | 31.09142 | -68.16516 | 40004 ft | 483 kts | 346° |
| 2026-05-04 07:38 | 31.35458 | -68.22847 | 39990 ft | 483 kts | 345° |
| 2026-05-04 07:38 | 31.42047 | -68.24436 | 40003 ft | 483 kts | 345° |
| 2026-05-04 07:39 | 31.48647 | -68.26033 | 39995 ft | 483 kts | 345° |
| 2026-05-04 07:39 | 31.55229 | -68.27627 | 39993 ft | 483 kts | 345° |
| 2026-05-04 07:40 | 31.61824 | -68.29227 | 40004 ft | 483 kts | 345° |
| 2026-05-04 07:40 | 31.68377 | -68.30818 | 39991 ft | 483 kts | 345° |
| 2026-05-04 07:41 | 31.74959 | -68.32419 | 39998 ft | 483 kts | 345° |
| 2026-05-04 07:41 | 31.81546 | -68.34024 | 40001 ft | 483 kts | 345° |
| 2026-05-04 07:42 | 31.88142 | -68.35632 | 39990 ft | 483 kts | 345° |
| 2026-05-04 07:42 | 31.94723 | -68.37240 | 40002 ft | 483 kts | 345° |
| 2026-05-04 07:43 | 32.01312 | -68.38852 | 39996 ft | 483 kts | 345° |
| 2026-05-04 07:43 | 32.07897 | -68.40465 | 39992 ft | 483 kts | 345° |
| 2026-05-04 07:44 | 32.14443 | -68.42071 | 40004 ft | 483 kts | 345° |
| 2026-05-04 07:44 | 32.21035 | -68.43691 | 39992 ft | 483 kts | 345° |
| 2026-05-04 07:45 | 32.27625 | -68.45312 | 39997 ft | 483 kts | 345° |
| 2026-05-04 07:45 | 32.34207 | -68.46934 | 40002 ft | 483 kts | 345° |
| 2026-05-04 07:46 | 32.40749 | -68.48549 | 39990 ft | 483 kts | 345° |
| 2026-05-04 07:46 | 32.47328 | -68.50175 | 40002 ft | 483 kts | 345° |
| 2026-05-04 07:47 | 32.53925 | -68.51808 | 39997 ft | 483 kts | 345° |
| 2026-05-04 07:49 | 32.80228 | -68.58344 | 39997 ft | 483 kts | 345° |
| 2026-05-04 07:49 | 32.86816 | -68.59987 | 40002 ft | 483 kts | 345° |
| 2026-05-04 07:50 | 32.93398 | -68.61631 | 39990 ft | 483 kts | 345° |
| 2026-05-04 07:50 | 32.99975 | -68.63276 | 40001 ft | 483 kts | 345° |
| 2026-05-04 07:51 | 33.06566 | -68.64928 | 39998 ft | 483 kts | 345° |
| 2026-05-04 07:51 | 33.13110 | -68.66570 | 39991 ft | 483 kts | 345° |
| 2026-05-04 07:52 | 33.19687 | -68.68223 | 40004 ft | 483 kts | 345° |
| 2026-05-04 07:52 | 33.26269 | -68.69879 | 39993 ft | 483 kts | 345° |
| 2026-05-04 07:54 | 33.52552 | -68.76520 | 40001 ft | 483 kts | 345° |
| 2026-05-04 07:55 | 33.59144 | -68.78193 | 39998 ft | 483 kts | 345° |
| 2026-05-04 07:55 | 33.65719 | -68.79863 | 39991 ft | 483 kts | 345° |
| 2026-05-04 07:56 | 33.72309 | -68.81540 | 40004 ft | 483 kts | 345° |
| 2026-05-04 07:56 | 33.78840 | -68.83204 | 39994 ft | 483 kts | 345° |
| 2026-05-04 07:57 | 33.85433 | -68.84887 | 39995 ft | 483 kts | 345° |
| 2026-05-04 07:57 | 33.92014 | -68.86570 | 40003 ft | 483 kts | 345° |
| 2026-05-04 07:58 | 33.98591 | -68.88254 | 39991 ft | 483 kts | 345° |
| 2026-05-04 07:58 | 34.05159 | -68.89938 | 40000 ft | 483 kts | 345° |
| 2026-05-04 07:59 | 34.11696 | -68.91616 | 39999 ft | 483 kts | 345° |
| 2026-05-04 07:59 | 34.18275 | -68.93309 | 39991 ft | 483 kts | 345° |
| 2026-05-04 08:00 | 34.24858 | -68.95006 | 40003 ft | 483 kts | 345° |
| 2026-05-04 08:02 | 34.51128 | -69.01804 | 39991 ft | 483 kts | 345° |
| 2026-05-04 08:02 | 34.57709 | -69.03514 | 40000 ft | 483 kts | 345° |
| 2026-05-04 08:03 | 34.64285 | -69.05225 | 40000 ft | 483 kts | 345° |
| 2026-05-04 08:03 | 34.70861 | -69.06939 | 39990 ft | 483 kts | 345° |
| 2026-05-04 08:04 | 34.77391 | -69.08644 | 40003 ft | 483 kts | 345° |
| 2026-05-04 08:04 | 34.83978 | -69.10366 | 39995 ft | 483 kts | 345° |
| 2026-05-04 08:05 | 34.90560 | -69.12090 | 39994 ft | 483 kts | 345° |
| 2026-05-04 08:05 | 34.97101 | -69.13806 | 40004 ft | 483 kts | 345° |
| 2026-05-04 08:06 | 35.03675 | -69.15533 | 39991 ft | 483 kts | 345° |
| 2026-05-04 08:06 | 35.10246 | -69.17263 | 39999 ft | 483 kts | 345° |
| 2026-05-04 08:08 | 35.35396 | -69.23909 | 39998 ft | 483 kts | 345° |
| 2026-05-04 08:11 | 35.64988 | -69.31783 | 40002 ft | 483 kts | 345° |
| 2026-05-04 08:11 | 35.74796 | -69.34407 | 39990 ft | 483 kts | 345° |
| 2026-05-04 08:12 | 35.81374 | -69.36170 | 40000 ft | 483 kts | 345° |
| 2026-05-04 08:12 | 35.87946 | -69.37934 | 39999 ft | 483 kts | 345° |
| 2026-05-04 08:13 | 35.94516 | -69.39701 | 39990 ft | 483 kts | 345° |